Stonelick, Ohio
Current Conditions -  °F | °C
As of 6:53 AM on Sunday 23 Nov 2014 (Local Time) from KLUK Reporting Station
Few Clouds Few Clouds  
Wind Chill: 40°   Ceiling: Unl
Heat Index: 40°   Visibility: 10mi
Dew Point: 36°   Wind: 0mph
Humidity: 86%   Direction: NA
Pressure: 30"   Gusts: NA
Location:  39.0978°N, 84.1162°W
Report Text: KLUK 231153Z 00000KT 10SM FEW085 04/02 A3000 RMK AO2 SLP160 70001 T00440022 10083 20044 58013
Loading
Personal Weather Stations






























Interactive Weather Map New forecast layout! Learn more

10-Day Weather Forecast

Advertisements
Track Severe Weather on mobile